sensor_id;sensor_type;location;lat;lon;timestamp;temperature;humidity
42905;DHT22;28550;51.228;4.528;2023-09-19T00:00:36;15.50;20.70
42905;DHT22;28550;51.228;4.528;2023-09-19T00:03:06;15.40;27.30
42905;DHT22;28550;51.228;4.528;2023-09-19T00:05:35;15.40;24.00
42905;DHT22;28550;51.228;4.528;2023-09-19T00:08:01;15.40;22.70
42905;DHT22;28550;51.228;4.528;2023-09-19T00:10:30;15.40;24.10
42905;DHT22;28550;51.228;4.528;2023-09-19T00:13:01;15.40;16.50
42905;DHT22;28550;51.228;4.528;2023-09-19T00:15:31;15.40;9.30
42905;DHT22;28550;51.228;4.528;2023-09-19T00:18:01;15.40;6.00
42905;DHT22;28550;51.228;4.528;2023-09-19T00:20:27;15.30;11.50
42905;DHT22;28550;51.228;4.528;2023-09-19T00:22:57;15.40;2.40
42905;DHT22;28550;51.228;4.528;2023-09-19T00:25:30;15.40;1.00
42905;DHT22;28550;51.228;4.528;2023-09-19T00:28:01;15.30;1.00
42905;DHT22;28550;51.228;4.528;2023-09-19T00:30:27;15.20;1.00
42905;DHT22;28550;51.228;4.528;2023-09-19T00:32:52;15.30;1.00
42905;DHT22;28550;51.228;4.528;2023-09-19T00:35:52;15.30;1.00
42905;DHT22;28550;51.228;4.528;2023-09-19T00:38:20;15.30;1.00
42905;DHT22;28550;51.228;4.528;2023-09-19T00:40:49;15.30;1.00
42905;DHT22;28550;51.228;4.528;2023-09-19T00:43:16;15.30;1.00
42905;DHT22;28550;51.228;4.528;2023-09-19T00:45:45;15.20;1.00
42905;DHT22;28550;51.228;4.528;2023-09-19T00:48:13;15.20;1.00
42905;DHT22;28550;51.228;4.528;2023-09-19T00:50:41;15.20;1.00
42905;DHT22;28550;51.228;4.528;2023-09-19T00:53:09;15.20;1.00
42905;DHT22;28550;51.228;4.528;2023-09-19T00:55:36;15.20;1.00
42905;DHT22;28550;51.228;4.528;2023-09-19T00:58:06;15.20;1.00
42905;DHT22;28550;51.228;4.528;2023-09-19T01:00:35;15.40;1.00
42905;DHT22;28550;51.228;4.528;2023-09-19T01:03:01;15.30;1.00
42905;DHT22;28550;51.228;4.528;2023-09-19T01:05:27;15.20;1.00
42905;DHT22;28550;51.228;4.528;2023-09-19T01:07:54;15.30;1.00
42905;DHT22;28550;51.228;4.528;2023-09-19T01:10:20;15.20;1.00
42905;DHT22;28550;51.228;4.528;2023-09-19T01:18:21;15.10;1.00
42905;DHT22;28550;51.228;4.528;2023-09-19T01:24:41;15.00;1.00
42905;DHT22;28550;51.228;4.528;2023-09-19T01:30:16;15.00;1.00
42905;DHT22;28550;51.228;4.528;2023-09-19T01:32:42;15.10;1.00
42905;DHT22;28550;51.228;4.528;2023-09-19T01:35:09;15.10;1.00
42905;DHT22;28550;51.228;4.528;2023-09-19T01:37:38;15.00;1.00
42905;DHT22;28550;51.228;4.528;2023-09-19T01:40:08;15.00;1.00
42905;DHT22;28550;51.228;4.528;2023-09-19T01:42:54;15.00;1.00
42905;DHT22;28550;51.228;4.528;2023-09-19T01:45:37;15.00;1.00
42905;DHT22;28550;51.228;4.528;2023-09-19T01:51:01;14.90;1.00
42905;DHT22;28550;51.228;4.528;2023-09-19T01:54:16;14.80;1.00
42905;DHT22;28550;51.228;4.528;2023-09-19T01:56:31;14.80;1.00
42905;DHT22;28550;51.228;4.528;2023-09-19T01:59:04;14.80;1.00
42905;DHT22;28550;51.228;4.528;2023-09-19T02:01:31;14.90;1.00
42905;DHT22;28550;51.228;4.528;2023-09-19T02:03:58;14.80;1.00
42905;DHT22;28550;51.228;4.528;2023-09-19T02:06:23;14.70;1.00
42905;DHT22;28550;51.228;4.528;2023-09-19T02:08:50;14.70;1.00
42905;DHT22;28550;51.228;4.528;2023-09-19T02:11:16;14.70;1.00
42905;DHT22;28550;51.228;4.528;2023-09-19T02:13:42;14.60;1.00
42905;DHT22;28550;51.228;4.528;2023-09-19T02:16:09;14.70;1.00
42905;DHT22;28550;51.228;4.528;2023-09-19T02:18:36;14.70;1.00
42905;DHT22;28550;51.228;4.528;2023-09-19T02:21:02;14.70;1.00
42905;DHT22;28550;51.228;4.528;2023-09-19T02:23:29;14.60;1.00
42905;DHT22;28550;51.228;4.528;2023-09-19T02:25:56;14.60;1.00
42905;DHT22;28550;51.228;4.528;2023-09-19T02:28:26;14.60;1.00
42905;DHT22;28550;51.228;4.528;2023-09-19T02:30:56;14.70;1.00
42905;DHT22;28550;51.228;4.528;2023-09-19T02:33:22;14.70;1.00
42905;DHT22;28550;51.228;4.528;2023-09-19T02:35:47;14.60;1.00
42905;DHT22;28550;51.228;4.528;2023-09-19T02:38:14;14.60;1.00
42905;DHT22;28550;51.228;4.528;2023-09-19T02:40:52;14.70;1.00
42905;DHT22;28550;51.228;4.528;2023-09-19T02:43:24;14.70;1.00
42905;DHT22;28550;51.228;4.528;2023-09-19T02:45:50;14.60;5.20
42905;DHT22;28550;51.228;4.528;2023-09-19T02:48:18;14.60;2.70
42905;DHT22;28550;51.228;4.528;2023-09-19T02:50:44;14.70;6.10
42905;DHT22;28550;51.228;4.528;2023-09-19T02:53:10;14.70;12.00
42905;DHT22;28550;51.228;4.528;2023-09-19T02:55:41;14.60;15.20
42905;DHT22;28550;51.228;4.528;2023-09-19T02:58:08;14.70;14.90
42905;DHT22;28550;51.228;4.528;2023-09-19T03:00:36;14.70;15.20
42905;DHT22;28550;51.228;4.528;2023-09-19T03:03:02;14.70;19.30
42905;DHT22;28550;51.228;4.528;2023-09-19T03:05:29;14.80;14.10
42905;DHT22;28550;51.228;4.528;2023-09-19T03:07:56;14.80;13.80
42905;DHT22;28550;51.228;4.528;2023-09-19T03:10:22;14.80;15.50
42905;DHT22;28550;51.228;4.528;2023-09-19T03:12:50;14.90;15.40
42905;DHT22;28550;51.228;4.528;2023-09-19T03:15:16;14.90;12.40
42905;DHT22;28550;51.228;4.528;2023-09-19T03:17:48;14.90;14.50
42905;DHT22;28550;51.228;4.528;2023-09-19T03:20:15;14.90;13.00
42905;DHT22;28550;51.228;4.528;2023-09-19T03:22:45;15.00;6.10
42905;DHT22;28550;51.228;4.528;2023-09-19T03:25:11;15.00;9.90
42905;DHT22;28550;51.228;4.528;2023-09-19T03:27:38;15.00;9.20
42905;DHT22;28550;51.228;4.528;2023-09-19T03:30:05;15.00;11.80
42905;DHT22;28550;51.228;4.528;2023-09-19T03:32:43;15.00;14.70
42905;DHT22;28550;51.228;4.528;2023-09-19T03:35:08;15.10;11.90
42905;DHT22;28550;51.228;4.528;2023-09-19T03:37:41;15.20;4.50
42905;DHT22;28550;51.228;4.528;2023-09-19T03:40:11;15.20;10.10
42905;DHT22;28550;51.228;4.528;2023-09-19T03:42:41;15.30;6.60
42905;DHT22;28550;51.228;4.528;2023-09-19T03:45:08;15.30;5.80
42905;DHT22;28550;51.228;4.528;2023-09-19T03:47:40;15.30;4.10
42905;DHT22;28550;51.228;4.528;2023-09-19T03:50:07;15.30;6.20
42905;DHT22;28550;51.228;4.528;2023-09-19T03:52:34;15.30;10.30
42905;DHT22;28550;51.228;4.528;2023-09-19T03:55:05;15.30;15.80
42905;DHT22;28550;51.228;4.528;2023-09-19T03:57:31;15.30;13.40
42905;DHT22;28550;51.228;4.528;2023-09-19T03:59:57;15.30;18.10
42905;DHT22;28550;51.228;4.528;2023-09-19T04:02:23;15.20;28.50
42905;DHT22;28550;51.228;4.528;2023-09-19T04:04:50;15.20;31.50
42905;DHT22;28550;51.228;4.528;2023-09-19T04:07:16;15.10;36.90
42905;DHT22;28550;51.228;4.528;2023-09-19T04:09:44;15.10;38.00
42905;DHT22;28550;51.228;4.528;2023-09-19T04:12:14;15.00;43.70
42905;DHT22;28550;51.228;4.528;2023-09-19T04:14:42;15.00;44.00
42905;DHT22;28550;51.228;4.528;2023-09-19T04:17:20;15.00;44.80
42905;DHT22;28550;51.228;4.528;2023-09-19T04:19:46;15.00;42.80
42905;DHT22;28550;51.228;4.528;2023-09-19T04:22:11;14.90;45.90
42905;DHT22;28550;51.228;4.528;2023-09-19T04:24:38;14.90;44.70
42905;DHT22;28550;51.228;4.528;2023-09-19T04:27:06;14.90;47.90
42905;DHT22;28550;51.228;4.528;2023-09-19T04:29:33;14.80;52.20
42905;DHT22;28550;51.228;4.528;2023-09-19T04:31:59;14.80;53.10
42905;DHT22;28550;51.228;4.528;2023-09-19T04:34:24;14.80;52.90
42905;DHT22;28550;51.228;4.528;2023-09-19T04:36:51;14.70;55.80
42905;DHT22;28550;51.228;4.528;2023-09-19T04:39:16;14.70;57.70
42905;DHT22;28550;51.228;4.528;2023-09-19T04:41:43;14.70;56.00
42905;DHT22;28550;51.228;4.528;2023-09-19T04:44:10;14.70;55.30
42905;DHT22;28550;51.228;4.528;2023-09-19T04:46:36;14.70;55.50
42905;DHT22;28550;51.228;4.528;2023-09-19T04:49:01;14.70;57.30
42905;DHT22;28550;51.228;4.528;2023-09-19T04:51:30;14.70;55.70
42905;DHT22;28550;51.228;4.528;2023-09-19T04:54:00;14.70;58.50
42905;DHT22;28550;51.228;4.528;2023-09-19T04:56:28;14.60;62.40
42905;DHT22;28550;51.228;4.528;2023-09-19T04:58:54;14.50;64.10
42905;DHT22;28550;51.228;4.528;2023-09-19T05:01:20;14.50;65.30
42905;DHT22;28550;51.228;4.528;2023-09-19T05:03:53;14.50;67.60
42905;DHT22;28550;51.228;4.528;2023-09-19T05:06:19;14.60;64.30
42905;DHT22;28550;51.228;4.528;2023-09-19T05:08:54;14.50;66.10
42905;DHT22;28550;51.228;4.528;2023-09-19T05:11:20;14.40;68.00
42905;DHT22;28550;51.228;4.528;2023-09-19T05:13:49;14.50;69.80
42905;DHT22;28550;51.228;4.528;2023-09-19T05:16:18;14.40;71.10
42905;DHT22;28550;51.228;4.528;2023-09-19T05:18:44;14.50;70.10
42905;DHT22;28550;51.228;4.528;2023-09-19T05:21:14;14.40;72.20
42905;DHT22;28550;51.228;4.528;2023-09-19T05:23:40;14.40;70.90
42905;DHT22;28550;51.228;4.528;2023-09-19T05:26:06;14.40;72.40
42905;DHT22;28550;51.228;4.528;2023-09-19T05:28:36;14.40;72.30
42905;DHT22;28550;51.228;4.528;2023-09-19T05:31:03;14.30;76.60
42905;DHT22;28550;51.228;4.528;2023-09-19T05:33:29;14.30;75.60
42905;DHT22;28550;51.228;4.528;2023-09-19T05:35:57;14.30;74.90
42905;DHT22;28550;51.228;4.528;2023-09-19T05:38:23;14.30;74.30
42905;DHT22;28550;51.228;4.528;2023-09-19T05:40:51;14.30;75.50
42905;DHT22;28550;51.228;4.528;2023-09-19T05:43:27;14.30;76.40
42905;DHT22;28550;51.228;4.528;2023-09-19T05:45:55;14.30;75.80
42905;DHT22;28550;51.228;4.528;2023-09-19T05:48:29;14.30;76.80
42905;DHT22;28550;51.228;4.528;2023-09-19T05:51:09;14.40;74.50
42905;DHT22;28550;51.228;4.528;2023-09-19T05:53:45;14.40;74.70
42905;DHT22;28550;51.228;4.528;2023-09-19T05:56:16;14.50;73.30
42905;DHT22;28550;51.228;4.528;2023-09-19T05:59:08;14.60;68.50
42905;DHT22;28550;51.228;4.528;2023-09-19T06:01:34;14.60;68.40
42905;DHT22;28550;51.228;4.528;2023-09-19T06:04:00;14.60;69.10
42905;DHT22;28550;51.228;4.528;2023-09-19T06:06:26;14.70;68.30
42905;DHT22;28550;51.228;4.528;2023-09-19T06:09:04;14.70;65.80
42905;DHT22;28550;51.228;4.528;2023-09-19T06:11:32;14.70;68.10
42905;DHT22;28550;51.228;4.528;2023-09-19T06:14:01;14.70;70.80
42905;DHT22;28550;51.228;4.528;2023-09-19T06:16:28;14.80;68.70
42905;DHT22;28550;51.228;4.528;2023-09-19T06:19:18;14.90;64.00
42905;DHT22;28550;51.228;4.528;2023-09-19T06:21:46;15.00;61.70
42905;DHT22;28550;51.228;4.528;2023-09-19T06:24:32;15.10;61.60
42905;DHT22;28550;51.228;4.528;2023-09-19T06:27:00;15.10;58.60
42905;DHT22;28550;51.228;4.528;2023-09-19T06:29:26;15.10;54.50
42905;DHT22;28550;51.228;4.528;2023-09-19T06:32:09;15.20;55.30
42905;DHT22;28550;51.228;4.528;2023-09-19T06:35:14;15.20;58.30
42905;DHT22;28550;51.228;4.528;2023-09-19T06:38:13;15.30;55.70
42905;DHT22;28550;51.228;4.528;2023-09-19T06:48:10;15.50;47.20
42905;DHT22;28550;51.228;4.528;2023-09-19T06:50:37;15.70;39.80
42905;DHT22;28550;51.228;4.528;2023-09-19T06:53:04;15.70;35.20
42905;DHT22;28550;51.228;4.528;2023-09-19T06:55:30;15.80;39.90
42905;DHT22;28550;51.228;4.528;2023-09-19T06:57:59;15.90;29.70
42905;DHT22;28550;51.228;4.528;2023-09-19T07:00:31;16.10;21.10
42905;DHT22;28550;51.228;4.528;2023-09-19T07:03:03;16.20;23.50
42905;DHT22;28550;51.228;4.528;2023-09-19T07:05:38;16.30;16.10
42905;DHT22;28550;51.228;4.528;2023-09-19T07:08:08;16.30;13.30
42905;DHT22;28550;51.228;4.528;2023-09-19T07:10:49;16.30;16.70
42905;DHT22;28550;51.228;4.528;2023-09-19T07:13:15;16.20;19.70
42905;DHT22;28550;51.228;4.528;2023-09-19T07:15:44;16.30;18.50
42905;DHT22;28550;51.228;4.528;2023-09-19T07:18:16;16.30;22.60
42905;DHT22;28550;51.228;4.528;2023-09-19T07:20:43;16.20;27.00
42905;DHT22;28550;51.228;4.528;2023-09-19T07:23:16;16.30;24.50
42905;DHT22;28550;51.228;4.528;2023-09-19T07:25:41;16.50;20.20
42905;DHT22;28550;51.228;4.528;2023-09-19T07:28:07;16.60;17.00
42905;DHT22;28550;51.228;4.528;2023-09-19T07:30:36;16.80;8.30
42905;DHT22;28550;51.228;4.528;2023-09-19T07:33:04;16.90;11.60
42905;DHT22;28550;51.228;4.528;2023-09-19T07:35:32;17.20;1.00
42905;DHT22;28550;51.228;4.528;2023-09-19T07:38:00;17.50;1.00
42905;DHT22;28550;51.228;4.528;2023-09-19T07:40:29;17.60;1.00
42905;DHT22;28550;51.228;4.528;2023-09-19T07:42:57;17.80;1.00
42905;DHT22;28550;51.228;4.528;2023-09-19T07:45:33;18.00;1.00
42905;DHT22;28550;51.228;4.528;2023-09-19T07:47:59;17.90;1.00
42905;DHT22;28550;51.228;4.528;2023-09-19T07:50:34;17.80;1.00
42905;DHT22;28550;51.228;4.528;2023-09-19T07:53:02;17.90;1.00
42905;DHT22;28550;51.228;4.528;2023-09-19T07:55:30;17.70;1.00
42905;DHT22;28550;51.228;4.528;2023-09-19T07:57:56;17.80;1.00
42905;DHT22;28550;51.228;4.528;2023-09-19T08:00:22;17.70;1.00
42905;DHT22;28550;51.228;4.528;2023-09-19T08:02:48;17.70;1.00
42905;DHT22;28550;51.228;4.528;2023-09-19T08:05:14;17.70;1.00
42905;DHT22;28550;51.228;4.528;2023-09-19T08:07:44;17.90;1.00
42905;DHT22;28550;51.228;4.528;2023-09-19T08:10:16;18.10;1.00
42905;DHT22;28550;51.228;4.528;2023-09-19T08:12:44;18.50;1.00
42905;DHT22;28550;51.228;4.528;2023-09-19T08:15:14;18.70;1.00
42905;DHT22;28550;51.228;4.528;2023-09-19T08:17:40;18.80;1.00
42905;DHT22;28550;51.228;4.528;2023-09-19T08:20:07;19.10;1.00
42905;DHT22;28550;51.228;4.528;2023-09-19T08:22:53;19.40;1.00
42905;DHT22;28550;51.228;4.528;2023-09-19T08:25:20;20.10;99.90
42905;DHT22;28550;51.228;4.528;2023-09-19T08:27:47;20.60;1.00
42905;DHT22;28550;51.228;4.528;2023-09-19T08:30:15;20.90;99.90
42905;DHT22;28550;51.228;4.528;2023-09-19T08:32:41;21.20;1.00
42905;DHT22;28550;51.228;4.528;2023-09-19T08:35:11;21.60;99.90
42905;DHT22;28550;51.228;4.528;2023-09-19T08:37:37;21.90;1.00
42905;DHT22;28550;51.228;4.528;2023-09-19T08:40:03;21.90;99.90
42905;DHT22;28550;51.228;4.528;2023-09-19T08:42:29;21.80;99.90
42905;DHT22;28550;51.228;4.528;2023-09-19T08:44:55;21.60;1.00
42905;DHT22;28550;51.228;4.528;2023-09-19T08:47:34;21.60;99.90
42905;DHT22;28550;51.228;4.528;2023-09-19T08:50:33;21.70;1.00
42905;DHT22;28550;51.228;4.528;2023-09-19T08:53:01;21.20;99.90
42905;DHT22;28550;51.228;4.528;2023-09-19T08:55:35;20.80;99.90
42905;DHT22;28550;51.228;4.528;2023-09-19T08:58:10;20.80;1.00
42905;DHT22;28550;51.228;4.528;2023-09-19T09:00:36;20.50;99.90
42905;DHT22;28550;51.228;4.528;2023-09-19T09:03:03;20.30;1.00
42905;DHT22;28550;51.228;4.528;2023-09-19T09:05:32;20.40;1.00
42905;DHT22;28550;51.228;4.528;2023-09-19T09:08:00;20.30;99.90
42905;DHT22;28550;51.228;4.528;2023-09-19T09:10:28;20.30;1.00
42905;DHT22;28550;51.228;4.528;2023-09-19T09:12:54;20.90;1.00
42905;DHT22;28550;51.228;4.528;2023-09-19T09:15:23;21.10;1.00
42905;DHT22;28550;51.228;4.528;2023-09-19T09:17:50;21.40;99.90
42905;DHT22;28550;51.228;4.528;2023-09-19T09:20:19;21.40;1.00
42905;DHT22;28550;51.228;4.528;2023-09-19T09:22:52;21.60;1.00
42905;DHT22;28550;51.228;4.528;2023-09-19T09:25:22;21.80;99.90
42905;DHT22;28550;51.228;4.528;2023-09-19T09:28:01;22.10;1.00
42905;DHT22;28550;51.228;4.528;2023-09-19T09:30:34;21.90;94.10
42905;DHT22;28550;51.228;4.528;2023-09-19T09:33:11;21.90;1.00
42905;DHT22;28550;51.228;4.528;2023-09-19T09:35:50;22.10;18.60
42905;DHT22;28550;51.228;4.528;2023-09-19T09:38:18;22.10;1.00
42905;DHT22;28550;51.228;4.528;2023-09-19T09:40:52;22.40;1.00
42905;DHT22;28550;51.228;4.528;2023-09-19T09:43:29;22.50;1.00
42905;DHT22;28550;51.228;4.528;2023-09-19T09:46:16;22.80;99.90
42905;DHT22;28550;51.228;4.528;2023-09-19T09:48:58;23.30;90.40
42905;DHT22;28550;51.228;4.528;2023-09-19T09:51:50;24.10;1.00
42905;DHT22;28550;51.228;4.528;2023-09-19T09:54:26;24.30;99.90
42905;DHT22;28550;51.228;4.528;2023-09-19T09:57:04;24.00;1.00
42905;DHT22;28550;51.228;4.528;2023-09-19T09:59:51;24.90;99.90
42905;DHT22;28550;51.228;4.528;2023-09-19T10:02:34;25.10;20.90
42905;DHT22;28550;51.228;4.528;2023-09-19T10:05:16;24.80;21.90
42905;DHT22;28550;51.228;4.528;2023-09-19T10:08:11;24.80;1.00
42905;DHT22;28550;51.228;4.528;2023-09-19T10:10:39;25.00;1.00
42905;DHT22;28550;51.228;4.528;2023-09-19T10:13:13;25.20;1.00
42905;DHT22;28550;51.228;4.528;2023-09-19T10:15:47;24.90;1.00
42905;DHT22;28550;51.228;4.528;2023-09-19T10:18:24;24.50;1.00
42905;DHT22;28550;51.228;4.528;2023-09-19T10:20:51;24.10;1.00
42905;DHT22;28550;51.228;4.528;2023-09-19T10:23:18;24.40;1.00
42905;DHT22;28550;51.228;4.528;2023-09-19T10:25:52;24.90;1.00
42905;DHT22;28550;51.228;4.528;2023-09-19T10:28:19;25.80;1.00
42905;DHT22;28550;51.228;4.528;2023-09-19T10:30:50;26.20;99.90
42905;DHT22;28550;51.228;4.528;2023-09-19T10:33:18;26.50;99.90
42905;DHT22;28550;51.228;4.528;2023-09-19T10:35:49;27.20;99.90
42905;DHT22;28550;51.228;4.528;2023-09-19T10:38:20;27.70;99.90
42905;DHT22;28550;51.228;4.528;2023-09-19T10:40:53;27.20;99.90
42905;DHT22;28550;51.228;4.528;2023-09-19T10:43:20;27.10;99.90
42905;DHT22;28550;51.228;4.528;2023-09-19T10:45:50;27.30;99.90
42905;DHT22;28550;51.228;4.528;2023-09-19T10:48:18;27.00;99.90
42905;DHT22;28550;51.228;4.528;2023-09-19T10:51:14;27.30;99.90
42905;DHT22;28550;51.228;4.528;2023-09-19T10:56:48;27.20;99.90
42905;DHT22;28550;51.228;4.528;2023-09-19T10:59:17;26.50;99.90
42905;DHT22;28550;51.228;4.528;2023-09-19T11:01:55;25.70;99.90
42905;DHT22;28550;51.228;4.528;2023-09-19T11:04:33;24.50;1.00
42905;DHT22;28550;51.228;4.528;2023-09-19T11:07:05;23.60;99.90
42905;DHT22;28550;51.228;4.528;2023-09-19T11:09:56;24.00;99.90
42905;DHT22;28550;51.228;4.528;2023-09-19T11:15:07;24.30;99.90
42905;DHT22;28550;51.228;4.528;2023-09-19T11:17:43;24.40;99.10
42905;DHT22;28550;51.228;4.528;2023-09-19T11:30:40;25.90;1.00
42905;DHT22;28550;51.228;4.528;2023-09-19T11:33:18;26.00;1.00
42905;DHT22;28550;51.228;4.528;2023-09-19T11:36:13;26.40;99.90
42905;DHT22;28550;51.228;4.528;2023-09-19T11:41:37;25.10;1.00
42905;DHT22;28550;51.228;4.528;2023-09-19T11:49:18;24.10;99.90
42905;DHT22;28550;51.228;4.528;2023-09-19T11:51:50;23.70;99.90
42905;DHT22;28550;51.228;4.528;2023-09-19T11:54:20;23.10;71.90
42905;DHT22;28550;51.228;4.528;2023-09-19T11:56:54;23.10;99.90
42905;DHT22;28550;51.228;4.528;2023-09-19T11:59:23;23.40;29.80
42905;DHT22;28550;51.228;4.528;2023-09-19T12:01:54;23.10;7.50
42905;DHT22;28550;51.228;4.528;2023-09-19T12:04:40;22.50;1.00
42905;DHT22;28550;51.228;4.528;2023-09-19T12:07:10;22.20;1.00
42905;DHT22;28550;51.228;4.528;2023-09-19T12:09:49;22.40;99.90
42905;DHT22;28550;51.228;4.528;2023-09-19T12:12:34;22.20;99.90
42905;DHT22;28550;51.228;4.528;2023-09-19T12:14:59;22.90;99.90
42905;DHT22;28550;51.228;4.528;2023-09-19T12:17:39;23.00;99.90
42905;DHT22;28550;51.228;4.528;2023-09-19T12:20:07;22.70;99.90
42905;DHT22;28550;51.228;4.528;2023-09-19T12:22:46;23.60;99.90
42905;DHT22;28550;51.228;4.528;2023-09-19T12:25:16;24.80;1.00
42905;DHT22;28550;51.228;4.528;2023-09-19T12:27:50;26.50;1.00
42905;DHT22;28550;51.228;4.528;2023-09-19T12:30:19;27.20;1.00
42905;DHT22;28550;51.228;4.528;2023-09-19T12:32:48;27.30;99.90
42905;DHT22;28550;51.228;4.528;2023-09-19T12:35:28;26.60;99.90
42905;DHT22;28550;51.228;4.528;2023-09-19T12:37:54;25.60;1.00
42905;DHT22;28550;51.228;4.528;2023-09-19T12:40:21;24.50;1.00
42905;DHT22;28550;51.228;4.528;2023-09-19T12:42:54;23.40;99.90
42905;DHT22;28550;51.228;4.528;2023-09-19T12:45:33;22.70;99.90
42905;DHT22;28550;51.228;4.528;2023-09-19T12:48:25;22.20;99.90
42905;DHT22;28550;51.228;4.528;2023-09-19T12:51:08;21.80;99.90
42905;DHT22;28550;51.228;4.528;2023-09-19T12:53:42;21.70;1.00
42905;DHT22;28550;51.228;4.528;2023-09-19T12:56:10;21.60;1.00
42905;DHT22;28550;51.228;4.528;2023-09-19T12:58:56;21.40;18.60
42905;DHT22;28550;51.228;4.528;2023-09-19T13:01:25;21.50;1.00
42905;DHT22;28550;51.228;4.528;2023-09-19T13:06:44;21.50;2.90
42905;DHT22;28550;51.228;4.528;2023-09-19T13:09:13;21.50;99.90
42905;DHT22;28550;51.228;4.528;2023-09-19T13:11:40;21.40;99.90
42905;DHT22;28550;51.228;4.528;2023-09-19T13:14:18;21.20;99.90
42905;DHT22;28550;51.228;4.528;2023-09-19T13:17:04;21.20;1.00
42905;DHT22;28550;51.228;4.528;2023-09-19T13:19:39;21.20;1.00
42905;DHT22;28550;51.228;4.528;2023-09-19T13:22:40;21.10;99.90
42905;DHT22;28550;51.228;4.528;2023-09-19T13:25:19;21.10;1.00
42905;DHT22;28550;51.228;4.528;2023-09-19T13:28:05;21.00;99.90
42905;DHT22;28550;51.228;4.528;2023-09-19T13:30:31;21.00;1.00
42905;DHT22;28550;51.228;4.528;2023-09-19T13:33:10;21.10;99.90
42905;DHT22;28550;51.228;4.528;2023-09-19T13:35:39;21.20;99.90
42905;DHT22;28550;51.228;4.528;2023-09-19T13:38:06;21.50;99.90
42905;DHT22;28550;51.228;4.528;2023-09-19T13:40:35;21.50;57.00
42905;DHT22;28550;51.228;4.528;2023-09-19T13:43:03;21.70;99.90
42905;DHT22;28550;51.228;4.528;2023-09-19T13:45:32;21.80;99.90
42905;DHT22;28550;51.228;4.528;2023-09-19T13:47:58;21.70;1.00
42905;DHT22;28550;51.228;4.528;2023-09-19T13:50:26;21.70;1.00
42905;DHT22;28550;51.228;4.528;2023-09-19T13:52:54;21.50;1.00
42905;DHT22;28550;51.228;4.528;2023-09-19T13:55:20;21.40;99.90
42905;DHT22;28550;51.228;4.528;2023-09-19T13:57:49;21.60;99.90
42905;DHT22;28550;51.228;4.528;2023-09-19T14:00:21;21.60;1.00
42905;DHT22;28550;51.228;4.528;2023-09-19T14:02:49;22.30;99.90
42905;DHT22;28550;51.228;4.528;2023-09-19T14:05:16;22.70;99.90
42905;DHT22;28550;51.228;4.528;2023-09-19T14:07:45;22.80;99.90
42905;DHT22;28550;51.228;4.528;2023-09-19T14:10:11;22.50;51.00
42905;DHT22;28550;51.228;4.528;2023-09-19T14:12:38;22.10;99.90
42905;DHT22;28550;51.228;4.528;2023-09-19T14:15:06;22.20;99.90
42905;DHT22;28550;51.228;4.528;2023-09-19T14:17:33;23.10;99.90
42905;DHT22;28550;51.228;4.528;2023-09-19T14:20:02;23.00;1.00
42905;DHT22;28550;51.228;4.528;2023-09-19T14:22:28;22.70;99.90
42905;DHT22;28550;51.228;4.528;2023-09-19T14:24:53;23.00;1.00
42905;DHT22;28550;51.228;4.528;2023-09-19T14:27:20;22.90;99.90
42905;DHT22;28550;51.228;4.528;2023-09-19T14:29:49;22.40;9.60
42905;DHT22;28550;51.228;4.528;2023-09-19T14:32:15;22.10;1.00
42905;DHT22;28550;51.228;4.528;2023-09-19T14:34:41;21.90;89.90
42905;DHT22;28550;51.228;4.528;2023-09-19T14:37:08;21.80;90.10
42905;DHT22;28550;51.228;4.528;2023-09-19T14:39:34;21.80;99.90
42905;DHT22;28550;51.228;4.528;2023-09-19T14:41:59;21.70;1.00
42905;DHT22;28550;51.228;4.528;2023-09-19T14:44:26;21.70;99.90
42905;DHT22;28550;51.228;4.528;2023-09-19T14:46:53;21.60;72.30
42905;DHT22;28550;51.228;4.528;2023-09-19T14:49:20;21.50;1.00
42905;DHT22;28550;51.228;4.528;2023-09-19T14:51:45;21.60;99.90
42905;DHT22;28550;51.228;4.528;2023-09-19T14:54:12;21.50;1.00
42905;DHT22;28550;51.228;4.528;2023-09-19T14:56:38;21.40;85.90
42905;DHT22;28550;51.228;4.528;2023-09-19T14:59:04;21.20;1.00
42905;DHT22;28550;51.228;4.528;2023-09-19T15:01:30;21.20;1.80
42905;DHT22;28550;51.228;4.528;2023-09-19T15:03:55;21.10;1.00
42905;DHT22;28550;51.228;4.528;2023-09-19T15:06:21;21.10;99.90
42905;DHT22;28550;51.228;4.528;2023-09-19T15:08:47;21.10;1.00
42905;DHT22;28550;51.228;4.528;2023-09-19T15:11:17;20.90;99.90
42905;DHT22;28550;51.228;4.528;2023-09-19T15:13:45;20.70;1.00
42905;DHT22;28550;51.228;4.528;2023-09-19T15:16:11;20.50;99.90
42905;DHT22;28550;51.228;4.528;2023-09-19T15:18:40;20.40;99.90
42905;DHT22;28550;51.228;4.528;2023-09-19T15:21:07;20.40;1.00
42905;DHT22;28550;51.228;4.528;2023-09-19T15:23:34;20.40;1.00
42905;DHT22;28550;51.228;4.528;2023-09-19T15:26:01;20.40;1.00
42905;DHT22;28550;51.228;4.528;2023-09-19T15:28:30;20.40;1.00
42905;DHT22;28550;51.228;4.528;2023-09-19T15:31:02;20.30;1.00
42905;DHT22;28550;51.228;4.528;2023-09-19T15:33:34;20.30;1.00
42905;DHT22;28550;51.228;4.528;2023-09-19T15:36:10;20.20;47.40
42905;DHT22;28550;51.228;4.528;2023-09-19T15:41:45;19.90;99.90
42905;DHT22;28550;51.228;4.528;2023-09-19T15:44:18;20.00;99.90
42905;DHT22;28550;51.228;4.528;2023-09-19T15:46:44;20.20;99.90
42905;DHT22;28550;51.228;4.528;2023-09-19T15:49:10;20.40;13.40
42905;DHT22;28550;51.228;4.528;2023-09-19T15:51:37;20.40;93.00
42905;DHT22;28550;51.228;4.528;2023-09-19T15:54:13;20.30;99.90
42905;DHT22;28550;51.228;4.528;2023-09-19T15:56:40;20.30;1.00
42905;DHT22;28550;51.228;4.528;2023-09-19T15:59:14;20.10;99.90
42905;DHT22;28550;51.228;4.528;2023-09-19T16:01:41;20.00;99.90
42905;DHT22;28550;51.228;4.528;2023-09-19T16:04:08;20.00;99.90
42905;DHT22;28550;51.228;4.528;2023-09-19T16:06:35;19.90;99.90
42905;DHT22;28550;51.228;4.528;2023-09-19T16:09:02;19.90;99.90
42905;DHT22;28550;51.228;4.528;2023-09-19T16:11:33;19.90;99.90
42905;DHT22;28550;51.228;4.528;2023-09-19T16:13:59;19.90;99.90
42905;DHT22;28550;51.228;4.528;2023-09-19T16:16:26;20.00;99.90
42905;DHT22;28550;51.228;4.528;2023-09-19T16:18:57;19.90;99.90
42905;DHT22;28550;51.228;4.528;2023-09-19T16:21:27;19.90;99.90
42905;DHT22;28550;51.228;4.528;2023-09-19T16:23:54;19.90;99.90
42905;DHT22;28550;51.228;4.528;2023-09-19T16:26:20;19.80;1.00
42905;DHT22;28550;51.228;4.528;2023-09-19T16:28:50;19.70;99.90
42905;DHT22;28550;51.228;4.528;2023-09-19T16:31:16;19.70;99.90
42905;DHT22;28550;51.228;4.528;2023-09-19T16:33:44;19.70;1.00
42905;DHT22;28550;51.228;4.528;2023-09-19T16:36:15;19.70;1.00
42905;DHT22;28550;51.228;4.528;2023-09-19T16:38:43;19.60;1.00
42905;DHT22;28550;51.228;4.528;2023-09-19T16:41:12;19.60;1.00
42905;DHT22;28550;51.228;4.528;2023-09-19T16:43:44;19.70;1.00
42905;DHT22;28550;51.228;4.528;2023-09-19T16:46:11;19.70;1.00
42905;DHT22;28550;51.228;4.528;2023-09-19T16:48:39;19.60;1.00
42905;DHT22;28550;51.228;4.528;2023-09-19T16:51:09;19.60;1.00